Map

Track Data

SID SEASON NUMBER BASIN SUBBASIN NAME ISO_TIME NATURE LAT LON WMO_WIND WMO_PRES WMO_AGENCY TRACK_TYPE DIST2LAND LANDFALL IFLAG USA_AGENCY USA_ATCF_ID USA_LAT USA_LON USA_RECORD USA_STATUS USA_WIND USA_PRES USA_SSHS USA_R34_NE USA_R34_SE USA_R34_SW USA_R34_NW USA_R50_NE USA_R50_SE USA_R50_SW USA_R50_NW USA_R64_NE USA_R64_SE USA_R64_SW USA_R64_NW USA_POCI USA_ROCI USA_RMW USA_EYE TOKYO_LAT TOKYO_LON TOKYO_GRADE TOKYO_WIND TOKYO_PRES TOKYO_R50_DIR TOKYO_R50_LONG TOKYO_R50_SHORT TOKYO_R30_DIR TOKYO_R30_LONG TOKYO_R30_SHORT TOKYO_LAND CMA_LAT CMA_LON CMA_CAT CMA_WIND CMA_PRES HKO_LAT HKO_LON HKO_CAT HKO_WIND HKO_PRES NEWDELHI_LAT NEWDELHI_LON NEWDELHI_GRADE NEWDELHI_WIND NEWDELHI_PRES NEWDELHI_CI NEWDELHI_DP NEWDELHI_POCI REUNION_LAT REUNION_LON REUNION_TYPE REUNION_WIND REUNION_PRES REUNION_TNUM REUNION_CI REUNION_RMW REUNION_R34_NE REUNION_R34_SE REUNION_R34_SW REUNION_R34_NW REUNION_R50_NE REUNION_R50_SE REUNION_R50_SW REUNION_R50_NW REUNION_R64_NE REUNION_R64_SE REUNION_R64_SW REUNION_R64_NW BOM_LAT BOM_LON BOM_TYPE BOM_WIND BOM_PRES BOM_TNUM BOM_CI BOM_RMW BOM_R34_NE BOM_R34_SE BOM_R34_SW BOM_R34_NW BOM_R50_NE BOM_R50_SE BOM_R50_SW BOM_R50_NW BOM_R64_NE BOM_R64_SE BOM_R64_SW BOM_R64_NW BOM_ROCI BOM_POCI BOM_EYE BOM_POS_METHOD BOM_PRES_METHOD NADI_LAT NADI_LON NADI_CAT NADI_WIND NADI_PRES WELLINGTON_LAT WELLINGTON_LON WELLINGTON_WIND WELLINGTON_PRES DS824_LAT DS824_LON DS824_STAGE DS824_WIND DS824_PRES TD9636_LAT TD9636_LON TD9636_STAGE TD9636_WIND TD9636_PRES TD9635_LAT TD9635_LON TD9635_WIND TD9635_PRES TD9635_ROCI NEUMANN_LAT NEUMANN_LON NEUMANN_CLASS NEUMANN_WIND NEUMANN_PRES MLC_LAT MLC_LON MLC_CLASS MLC_WIND MLC_PRES USA_GUST BOM_GUST BOM_GUST_PER REUNION_GUST REUNION_GUST_PER USA_SEAHGT USA_SEARAD_NE USA_SEARAD_SE USA_SEARAD_SW USA_SEARAD_NW STORM_SPEED STORM_DIR
1988264N13328 1988 82 NA NA HELENE 1988-09-19 18:00:00 TS 13.4000 -31.6000 30 1009 hurdat_atl main 1528 1528 O_____________ hurdat_atl AL091988 13.4000 -31.6000 TD 30 1009 -1 11 264
1988264N13328 1988 82 NA NA HELENE 1988-09-19 21:00:00 TS 13.3477 -32.1476 main 1583 1583 P_____________ AL091988 13.3477 -32.1476 TD 31 1008 -1 11 265
1988264N13328 1988 82 NA NA HELENE 1988-09-20 00:00:00 TS 13.3000 -32.7000 32 1008 hurdat_atl main 1647 1647 O_____________ hurdat_atl AL091988 13.3000 -32.7000 TD 32 1008 -1 11 265
1988264N13328 1988 82 NA NA HELENE 1988-09-20 03:00:00 TS 13.2574 -33.2574 main 1712 1712 P_____________ AL091988 13.2574 -33.2574 TD 33 1008 -1 11 265
1988264N13328 1988 82 NA NA HELENE 1988-09-20 06:00:00 TS 13.2000 -33.8000 35 1008 hurdat_atl main 1767 1767 O_____________ hurdat_atl AL091988 13.2000 -33.8000 TS 35 1008 0 10 263
1988264N13328 1988 82 NA NA HELENE 1988-09-20 09:00:00 TS 13.1374 -34.3148 main 1822 1822 P_____________ AL091988 13.1374 -34.3148 TS 37 1006 0 10 258
1988264N13328 1988 82 NA NA HELENE 1988-09-20 12:00:00 TS 13.0000 -34.8000 40 1004 hurdat_atl main 1865 1820 O_____________ hurdat_atl AL091988 13.0000 -34.8000 TS 40 1004 0 10 244
1988264N13328 1988 82 NA NA HELENE 1988-09-20 15:00:00 TS 12.6998 -35.2502 main 1817 1773 P_____________ AL091988 12.6998 -35.2502 TS 42 1003 0 11 236
1988264N13328 1988 82 NA NA HELENE 1988-09-20 18:00:00 TS 12.4000 -35.7000 45 1002 hurdat_atl main 1773 1748 O_____________ hurdat_atl AL091988 12.4000 -35.7000 TS 45 1002 0 10 245
1988264N13328 1988 82 NA NA HELENE 1988-09-20 21:00:00 TS 12.2699 -36.1923 main 1748 1726 P_____________ AL091988 12.2699 -36.1923 TS 47 1000 0 10 258
1988264N13328 1988 82 NA NA HELENE 1988-09-21 00:00:00 TS 12.2000 -36.7000 50 998 hurdat_atl main 1726 1705 O_____________ hurdat_atl AL091988 12.2000 -36.7000 TS 50 998 0 10 259
1988264N13328 1988 82 NA NA HELENE 1988-09-21 03:00:00 TS 12.0774 -37.1926 main 1705 1685 P_____________ AL091988 12.0774 -37.1926 TS 55 995 0 10 258
1988264N13328 1988 82 NA NA HELENE 1988-09-21 06:00:00 TS 12.0000 -37.7000 60 993 hurdat_atl main 1685 1678 O_____________ hurdat_atl AL091988 12.0000 -37.7000 TS 60 993 0 10 266
1988264N13328 1988 82 NA NA HELENE 1988-09-21 09:00:00 TS 12.0124 -38.2425 main 1678 1629 P_____________ AL091988 12.0124 -38.2425 TS 65 995 1 11 275
1988264N13328 1988 82 NA NA HELENE 1988-09-21 12:00:00 TS 12.1000 -38.8000 70 998 hurdat_atl main 1629 1589 O_____________ hurdat_atl AL091988 12.1000 -38.8000 HU 70 998 1 11 281
1988264N13328 1988 82 NA NA HELENE 1988-09-21 15:00:00 TS 12.2350 -39.3799 main 1580 1547 P_____________ AL091988 12.2350 -39.3799 HU 72 990 1 11 286
1988264N13328 1988 82 NA NA HELENE 1988-09-21 18:00:00 TS 12.4000 -39.9000 75 983 hurdat_atl main 1547 1527 O_____________ hurdat_atl AL091988 12.4000 -39.9000 HU 75 983 1 9 290
1988264N13328 1988 82 NA NA HELENE 1988-09-21 21:00:00 TS 12.5498 -40.2651 main 1519 1506 P_____________ AL091988 12.5498 -40.2651 HU 77 980 1 7 294
1988264N13328 1988 82 NA NA HELENE 1988-09-22 00:00:00 TS 12.7000 -40.6000 80 978 hurdat_atl main 1506 1479 O_____________ hurdat_atl AL091988 12.7000 -40.6000 HU 80 978 1 8 292
1988264N13328 1988 82 NA NA HELENE 1988-09-22 03:00:00 TS 12.8575 -41.0425 main 1486 1452 P_____________ AL091988 12.8575 -41.0425 HU 85 975 2 9 289
1988264N13328 1988 82 NA NA HELENE 1988-09-22 06:00:00 TS 13.0000 -41.5000 90 972 hurdat_atl main 1452 1427 O_____________ hurdat_atl AL091988 13.0000 -41.5000 HU 90 972 2 9 286
1988264N13328 1988 82 NA NA HELENE 1988-09-22 09:00:00 TS 13.0999 -41.9076 main 1427 1404 P_____________ AL091988 13.0999 -41.9076 HU 92 968 2 8 284
1988264N13328 1988 82 NA NA HELENE 1988-09-22 12:00:00 TS 13.2000 -42.3000 95 965 hurdat_atl main 1404 1381 O_____________ hurdat_atl AL091988 13.2000 -42.3000 HU 95 965 2 8 287
1988264N13328 1988 82 NA NA HELENE 1988-09-22 15:00:00 TS 13.3349 -42.6926 main 1381 1367 P_____________ AL091988 13.3349 -42.6926 HU 97 962 3 8 291
1988264N13328 1988 82 NA NA HELENE 1988-09-22 18:00:00 TS 13.5000 -43.1000 100 959 hurdat_atl main 1368 1355 O_____________ hurdat_atl AL091988 13.5000 -43.1000 HU 100 959 3 9 294
1988264N13328 1988 82 NA NA HELENE 1988-09-22 21:00:00 TS 13.7075 -43.5424 main 1357 1340 P_____________ AL091988 13.7075 -43.5424 HU 105 956 3 10 295
1988264N13328 1988 82 NA NA HELENE 1988-09-23 00:00:00 TS 13.9000 -44.0000 110 953 hurdat_atl main 1340 1324 O_____________ hurdat_atl AL091988 13.9000 -44.0000 HU 110 953 3 9 287
1988264N13328 1988 82 NA NA HELENE 1988-09-23 03:00:00 TS 13.9850 -44.4727 main 1318 1299 P_____________ AL091988 13.9850 -44.4727 HU 112 949 3 9 283
1988264N13328 1988 82 NA NA HELENE 1988-09-23 06:00:00 TS 14.1000 -44.9000 115 945 hurdat_atl main 1303 1297 O_____________ hurdat_atl AL091988 14.1000 -44.9000 HU 115 945 4 8 298
1988264N13328 1988 82 NA NA HELENE 1988-09-23 09:00:00 TS 14.3699 -45.2225 main 1311 1304 P_____________ AL091988 14.3699 -45.2225 HU 117 942 4 8 316
1988264N13328 1988 82 NA NA HELENE 1988-09-23 12:00:00 TS 14.7000 -45.5000 120 939 hurdat_atl main 1317 1317 O_____________ hurdat_atl AL091988 14.7000 -45.5000 HU 120 939 4 8 319
1988264N13328 1988 82 NA NA HELENE 1988-09-23 15:00:00 TS 14.9999 -45.7851 main 1326 1326 P_____________ AL091988 14.9999 -45.7851 HU 122 938 4 8 316
1988264N13328 1988 82 NA NA HELENE 1988-09-23 18:00:00 TS 15.3000 -46.1000 125 938 hurdat_atl main 1335 1330 O_____________ hurdat_atl AL091988 15.3000 -46.1000 HU 125 938 4 9 311
1988264N13328 1988 82 NA NA HELENE 1988-09-23 21:00:00 TS 15.5926 -46.5000 main 1342 1336 P_____________ AL091988 15.5926 -46.5000 HU 122 939 4 10 308
1988264N13328 1988 82 NA NA HELENE 1988-09-24 00:00:00 TS 15.9000 -46.9000 120 940 hurdat_atl main 1350 1350 O_____________ hurdat_atl AL091988 15.9000 -46.9000 HU 120 940 4 10 313
1988264N13328 1988 82 NA NA HELENE 1988-09-24 03:00:00 TS 16.2349 -47.2226 main 1365 1365 P_____________ AL091988 16.2349 -47.2226 HU 120 942 4 9 321
1988264N13328 1988 82 NA NA HELENE 1988-09-24 06:00:00 TS 16.6000 -47.5000 120 944 hurdat_atl main 1391 1391 O_____________ hurdat_atl AL091988 16.6000 -47.5000 HU 120 944 4 9 326
1988264N13328 1988 82 NA NA HELENE 1988-09-24 09:00:00 TS 16.9999 -47.7576 main 1419 1419 P_____________ AL091988 16.9999 -47.7576 HU 117 946 4 9 329
1988264N13328 1988 82 NA NA HELENE 1988-09-24 12:00:00 TS 17.4000 -48.0000 115 948 hurdat_atl main 1452 1452 O_____________ hurdat_atl AL091988 17.4000 -48.0000 HU 115 948 4 9 328
1988264N13328 1988 82 NA NA HELENE 1988-09-24 15:00:00 TS 17.7650 -48.2576 main 1478 1478 P_____________ AL091988 17.7650 -48.2576 HU 112 951 3 9 326
1988264N13328 1988 82 NA NA HELENE 1988-09-24 18:00:00 TS 18.1000 -48.5000 110 954 hurdat_atl main 1499 1499 O_____________ hurdat_atl AL091988 18.1000 -48.5000 HU 110 954 3 8 325
1988264N13328 1988 82 NA NA HELENE 1988-09-24 21:00:00 TS 18.4000 -48.7300 main 1521 1517 P_____________ AL091988 18.4000 -48.7300 HU 105 956 3 7 328
1988264N13328 1988 82 NA NA HELENE 1988-09-25 00:00:00 TS 18.7000 -48.9000 100 959 hurdat_atl main 1544 1544 O_____________ hurdat_atl AL091988 18.7000 -48.9000 HU 100 959 3 7 340
1988264N13328 1988 82 NA NA HELENE 1988-09-25 03:00:00 TS 19.0500 -48.9726 main 1571 1571 P_____________ AL091988 19.0500 -48.9726 HU 100 961 3 7 352
1988264N13328 1988 82 NA NA HELENE 1988-09-25 06:00:00 TS 19.4000 -49.0000 100 963 hurdat_atl main 1613 1613 O_____________ hurdat_atl AL091988 19.4000 -49.0000 HU 100 963 3 6 353
1988264N13328 1988 82 NA NA HELENE 1988-09-25 09:00:00 TS 19.6850 -49.0426 main 1633 1625 P_____________ AL091988 19.6850 -49.0426 HU 97 964 3 6 351
1988264N13328 1988 82 NA NA HELENE 1988-09-25 12:00:00 TS 20.0000 -49.1000 95 966 hurdat_atl main 1645 1645 O_____________ hurdat_atl AL091988 20.0000 -49.1000 HU 95 966 2 7 349
1988264N13328 1988 82 NA NA HELENE 1988-09-25 15:00:00 TS 20.3975 -49.1925 main 1665 1665 P_____________ AL091988 20.3975 -49.1925 HU 92 967 2 9 348
1988264N13328 1988 82 NA NA HELENE 1988-09-25 18:00:00 TS 20.9000 -49.3000 90 968 hurdat_atl main 1692 1692 O_____________ hurdat_atl AL091988 20.9000 -49.3000 HU 90 968 2 12 350
1988264N13328 1988 82 NA NA HELENE 1988-09-25 21:00:00 TS 21.5275 -49.4000 main 1727 1724 P_____________ AL091988 21.5275 -49.4000 HU 87 969 2 13 352
1988264N13328 1988 82 NA NA HELENE 1988-09-26 00:00:00 TS 22.2000 -49.5000 85 971 hurdat_atl main 1730 1727 O_____________ hurdat_atl AL091988 22.2000 -49.5000 HU 85 971 2 13 352
1988264N13328 1988 82 NA NA HELENE 1988-09-26 03:00:00 TS 22.8150 -49.6001 main 1735 1733 P_____________ AL091988 22.8150 -49.6001 HU 85 972 2 12 351
1988264N13328 1988 82 NA NA HELENE 1988-09-26 06:00:00 TS 23.4000 -49.7000 85 973 hurdat_atl main 1742 1741 O_____________ hurdat_atl AL091988 23.4000 -49.7000 HU 85 973 2 11 352
1988264N13328 1988 82 NA NA HELENE 1988-09-26 09:00:00 TS 23.9425 -49.7854 main 1748 1748 P_____________ AL091988 23.9425 -49.7854 HU 82 974 1 11 351
1988264N13328 1988 82 NA NA HELENE 1988-09-26 12:00:00 TS 24.5000 -49.9000 80 975 hurdat_atl main 1760 1758 O_____________ hurdat_atl AL091988 24.5000 -49.9000 HU 80 975 1 12 348
1988264N13328 1988 82 NA NA HELENE 1988-09-26 15:00:00 TS 25.1349 -50.0554 main 1765 1765 P_____________ AL091988 25.1349 -50.0554 HU 80 975 1 14 344
1988264N13328 1988 82 NA NA HELENE 1988-09-26 18:00:00 TS 25.8000 -50.3000 80 976 hurdat_atl main 1777 1773 O_____________ hurdat_atl AL091988 25.8000 -50.3000 HU 80 976 1 14 337
1988264N13328 1988 82 NA NA HELENE 1988-09-26 21:00:00 TS 26.4651 -50.6698 main 1776 1768 P_____________ AL091988 26.4651 -50.6698 HU 77 976 1 15 331
1988264N13328 1988 82 NA NA HELENE 1988-09-27 00:00:00 TS 27.1000 -51.1000 75 977 hurdat_atl main 1773 1763 O_____________ hurdat_atl AL091988 27.1000 -51.1000 HU 75 977 1 14 326
1988264N13328 1988 82 NA NA HELENE 1988-09-27 03:00:00 TS 27.6277 -51.5524 main 1760 1760 P_____________ AL091988 27.6277 -51.5524 HU 75 978 1 13 327
1988264N13328 1988 82 NA NA HELENE 1988-09-27 06:00:00 TS 28.2000 -51.9000 75 979 hurdat_atl main 1773 1773 O_____________ hurdat_atl AL091988 28.2000 -51.9000 HU 75 979 1 14 343
1988264N13328 1988 82 NA NA HELENE 1988-09-27 09:00:00 TS 28.9998 -52.0181 main 1818 1818 P_____________ AL091988 28.9998 -52.0181 HU 75 979 1 16 357
1988264N13328 1988 82 NA NA HELENE 1988-09-27 12:00:00 TS 29.8000 -52.0000 75 979 hurdat_atl main 1873 1806 O_____________ hurdat_atl AL091988 29.8000 -52.0000 HU 75 979 1 14 0
1988264N13328 1988 82 NA NA HELENE 1988-09-27 15:00:00 TS 30.3949 -51.9874 main 1806 1751 P_____________ AL091988 30.3949 -51.9874 HU 75 979 1 11 5
1988264N13328 1988 82 NA NA HELENE 1988-09-27 18:00:00 TS 30.9000 -51.9000 75 979 hurdat_atl main 1751 1696 O_____________ hurdat_atl AL091988 30.9000 -51.9000 HU 75 979 1 10 12
1988264N13328 1988 82 NA NA HELENE 1988-09-27 21:00:00 TS 31.4150 -51.7301 main 1696 1642 P_____________ AL091988 31.4150 -51.7301 HU 75 979 1 11 19
1988264N13328 1988 82 NA NA HELENE 1988-09-28 00:00:00 TS 31.9000 -51.5000 75 979 hurdat_atl main 1642 1599 O_____________ hurdat_atl AL091988 31.9000 -51.5000 HU 75 979 1 10 22
1988264N13328 1988 82 NA NA HELENE 1988-09-28 03:00:00 TS 32.3724 -51.2723 main 1588 1547 P_____________ AL091988 32.3724 -51.2723 HU 77 978 1 10 25
1988264N13328 1988 82 NA NA HELENE 1988-09-28 06:00:00 TS 32.8000 -51.0000 80 977 hurdat_atl main 1547 1517 O_____________ hurdat_atl AL091988 32.8000 -51.0000 HU 80 977 1 9 34
1988264N13328 1988 82 NA NA HELENE 1988-09-28 09:00:00 TS 33.1274 -50.6716 main 1517 1478 P_____________ AL091988 33.1274 -50.6716 HU 80 976 1 9 40
1988264N13328 1988 82 NA NA HELENE 1988-09-28 12:00:00 TS 33.5000 -50.3000 80 975 hurdat_atl main 1478 1427 O_____________ hurdat_atl AL091988 33.5000 -50.3000 HU 80 975 1 11 34
1988264N13328 1988 82 NA NA HELENE 1988-09-28 15:00:00 TS 34.0473 -49.9220 main 1429 1359 P_____________ AL091988 34.0473 -49.9220 HU 82 973 1 14 29
1988264N13328 1988 82 NA NA HELENE 1988-09-28 18:00:00 TS 34.7000 -49.5000 85 972 hurdat_atl main 1359 1302 O_____________ hurdat_atl AL091988 34.7000 -49.5000 HU 85 972 2 15 28
1988264N13328 1988 82 NA NA HELENE 1988-09-28 21:00:00 TS 35.3463 -49.0864 main 1302 1231 P_____________ AL091988 35.3463 -49.0864 HU 87 971 2 16 30
1988264N13328 1988 82 NA NA HELENE 1988-09-29 00:00:00 TS 36.1000 -48.5000 90 970 hurdat_atl main 1231 1170 O_____________ hurdat_atl AL091988 36.1000 -48.5000 HU 90 970 2 20 36
1988264N13328 1988 82 NA NA HELENE 1988-09-29 03:00:00 TS 36.9907 -47.5822 main 1162 1107 P_____________ AL091988 36.9907 -47.5822 HU 90 970 2 25 40
1988264N13328 1988 82 NA NA HELENE 1988-09-29 06:00:00 TS 38.0000 -46.5000 90 970 hurdat_atl main 1101 1050 O_____________ hurdat_atl AL091988 38.0000 -46.5000 HU 90 970 2 26 39
1988264N13328 1988 82 NA NA HELENE 1988-09-29 09:00:00 TS 39.0388 -45.4749 main 1050 1005 P_____________ AL091988 39.0388 -45.4749 HU 87 971 2 27 37
1988264N13328 1988 82 NA NA HELENE 1988-09-29 12:00:00 TS 40.2000 -44.4000 85 973 hurdat_atl main 1002 976 O_____________ hurdat_atl AL091988 40.2000 -44.4000 HU 85 973 2 30 35
1988264N13328 1988 82 NA NA HELENE 1988-09-29 15:00:00 TS 41.4653 -43.2732 main 969 959 P_____________ AL091988 41.4653 -43.2732 HU 80 976 1 32 34
1988264N13328 1988 82 NA NA HELENE 1988-09-29 18:00:00 TS 42.9000 -42.0000 75 979 hurdat_atl main 965 965 O_____________ hurdat_atl AL091988 42.9000 -42.0000 HU 75 979 1 36 34
1988264N13328 1988 82 NA NA HELENE 1988-09-29 21:00:00 TS 44.4498 -40.5274 main 991 990 P_____________ AL091988 44.4498 -40.5274 HU 70 982 1 40 35
1988264N13328 1988 82 NA NA HELENE 1988-09-30 00:00:00 TS 46.2000 -38.8000 65 985 hurdat_atl main 1053 1053 O_____________ hurdat_atl AL091988 46.2000 -38.8000 HU 65 985 1 45 36
1988264N13328 1988 82 NA NA HELENE 1988-09-30 03:00:00 TS 48.0885 -36.7342 main 1182 1182 P_____________ AL091988 48.0885 -36.7342 HU 65 987 1 49 36
1988264N13328 1988 82 NA NA HELENE 1988-09-30 06:00:00 TS 50.2000 -34.5000 65 990 hurdat_atl main 1221 1074 O_____________ hurdat_atl AL091988 50.2000 -34.5000 HU 65 990 1 53 33
1988264N13328 1988 82 NA NA HELENE 1988-09-30 09:00:00 TS 52.5425 -32.2943 main 1068 960 P_____________ AL091988 52.5425 -32.2943 HU 62 991 0 55 30
1988264N13328 1988 82 NA NA HELENE 1988-09-30 12:00:00 ET 55.0000 -30.0000 60 992 hurdat_atl main 957 O_____________ hurdat_atl AL091988 55.0000 -30.0000 EX 60 992 -4 56 28

About IBTrACS Database

This database is a web-friendly format of International Best Track Archive for Climate Stewardship (IBTrACS), a global best track data archive curated by NOAA dating back to 1842.

Updated: 2021-12-03